KBFL/BFL METAR and TAF weather

Enter ICAO airport designator
Station Type Date Time Source
KBFL METAR 2022/11/26 07:54 UTC NOAA

KBFL 260754Z AUTO 00000KT 5SM HZ CLR 09/M01 A3024 RMK AO2 SLP238 T00891006 402110050


Station Type Date Time Source
KBFL Decoded METAR 2022/11/26 07:54 UTC NOAA

BAKERSFIELD MEADOWS FIELD, CA, United States (KBFL) 35-26N 119-03W 151M
Nov 26, 2022 - 02:54 AM EST / 2022.11.26 0754 UTC
Wind: Calm:0
Visibility: 5 mile(s):0
Sky conditions: clear
Weather: haze
Temperature: 48.0 F (8.9 C)
Dew Point: 30.9 F (-0.6 C)
Relative Humidity: 51%
Pressure (altimeter): 30.24 in. Hg (1024 hPa)
ob: KBFL 260754Z AUTO 00000KT 5SM HZ CLR 09/M01 A3024 RMK AO2 SLP238 T00891006 402110050
cycle: 8

Station Type Date Time Source
KBFL TAF 2022/11/26 06:22 UTC NOAA

TAF KBFL 260520Z 2606/2706 05007KT 6SM HZ SKC

Example: see airport list